sensor_id;sensor_type;location;lat;lon;timestamp;P1;durP1;ratioP1;P2;durP2;ratioP2
77430;SDS011;66498;48.564;19.272;2024-02-14T00:00:07;6.18;;;4.18;;
77430;SDS011;66498;48.564;19.272;2024-02-14T00:02:43;4.53;;;3.70;;
77430;SDS011;66498;48.564;19.272;2024-02-14T00:05:09;5.80;;;4.20;;
77430;SDS011;66498;48.564;19.272;2024-02-14T00:07:36;7.00;;;4.78;;
77430;SDS011;66498;48.564;19.272;2024-02-14T00:10:02;6.63;;;4.63;;
77430;SDS011;66498;48.564;19.272;2024-02-14T00:12:27;6.88;;;4.88;;
77430;SDS011;66498;48.564;19.272;2024-02-14T00:14:53;7.10;;;4.90;;
77430;SDS011;66498;48.564;19.272;2024-02-14T00:17:19;6.95;;;4.88;;
77430;SDS011;66498;48.564;19.272;2024-02-14T00:19:44;10.20;;;6.43;;
77430;SDS011;66498;48.564;19.272;2024-02-14T00:22:10;16.45;;;9.35;;
77430;SDS011;66498;48.564;19.272;2024-02-14T00:24:35;19.67;;;11.05;;
77430;SDS011;66498;48.564;19.272;2024-02-14T00:27:01;16.13;;;9.68;;
77430;SDS011;66498;48.564;19.272;2024-02-14T00:29:28;13.25;;;9.57;;
77430;SDS011;66498;48.564;19.272;2024-02-14T00:31:59;11.38;;;8.40;;
77430;SDS011;66498;48.564;19.272;2024-02-14T00:34:24;11.05;;;8.25;;
77430;SDS011;66498;48.564;19.272;2024-02-14T00:36:50;10.55;;;7.47;;
77430;SDS011;66498;48.564;19.272;2024-02-14T00:39:15;10.82;;;7.35;;
77430;SDS011;66498;48.564;19.272;2024-02-14T00:41:41;11.48;;;7.57;;
77430;SDS011;66498;48.564;19.272;2024-02-14T00:44:06;10.73;;;7.82;;
77430;SDS011;66498;48.564;19.272;2024-02-14T00:46:32;15.95;;;9.57;;
77430;SDS011;66498;48.564;19.272;2024-02-14T00:48:57;27.67;;;13.65;;
77430;SDS011;66498;48.564;19.272;2024-02-14T00:51:23;22.25;;;11.45;;
77430;SDS011;66498;48.564;19.272;2024-02-14T00:53:48;16.80;;;10.35;;
77430;SDS011;66498;48.564;19.272;2024-02-14T00:56:13;17.08;;;9.95;;
77430;SDS011;66498;48.564;19.272;2024-02-14T00:58:39;16.10;;;10.15;;
77430;SDS011;66498;48.564;19.272;2024-02-14T01:01:04;22.65;;;12.05;;
77430;SDS011;66498;48.564;19.272;2024-02-14T01:03:30;18.10;;;10.93;;
77430;SDS011;66498;48.564;19.272;2024-02-14T01:05:56;14.63;;;9.25;;
77430;SDS011;66498;48.564;19.272;2024-02-14T01:08:21;11.85;;;7.95;;
77430;SDS011;66498;48.564;19.272;2024-02-14T01:10:47;9.98;;;6.90;;
77430;SDS011;66498;48.564;19.272;2024-02-14T01:13:13;10.45;;;7.15;;
77430;SDS011;66498;48.564;19.272;2024-02-14T01:15:39;9.82;;;7.13;;
77430;SDS011;66498;48.564;19.272;2024-02-14T01:18:04;12.02;;;7.75;;
77430;SDS011;66498;48.564;19.272;2024-02-14T01:20:30;8.75;;;6.55;;
77430;SDS011;66498;48.564;19.272;2024-02-14T01:22:55;9.68;;;6.60;;
77430;SDS011;66498;48.564;19.272;2024-02-14T01:25:21;7.93;;;6.30;;
77430;SDS011;66498;48.564;19.272;2024-02-14T01:27:47;9.35;;;6.53;;
77430;SDS011;66498;48.564;19.272;2024-02-14T01:30:14;9.30;;;7.13;;
77430;SDS011;66498;48.564;19.272;2024-02-14T01:32:39;12.40;;;7.63;;
77430;SDS011;66498;48.564;19.272;2024-02-14T01:35:05;13.43;;;8.15;;
77430;SDS011;66498;48.564;19.272;2024-02-14T01:37:31;14.90;;;8.50;;
77430;SDS011;66498;48.564;19.272;2024-02-14T01:39:56;11.57;;;7.38;;
77430;SDS011;66498;48.564;19.272;2024-02-14T01:42:22;10.55;;;8.10;;
77430;SDS011;66498;48.564;19.272;2024-02-14T01:44:47;10.45;;;7.68;;
77430;SDS011;66498;48.564;19.272;2024-02-14T01:47:13;9.48;;;7.65;;
77430;SDS011;66498;48.564;19.272;2024-02-14T01:49:38;10.50;;;7.35;;
77430;SDS011;66498;48.564;19.272;2024-02-14T01:52:09;9.85;;;7.18;;
77430;SDS011;66498;48.564;19.272;2024-02-14T01:54:35;13.70;;;9.63;;
77430;SDS011;66498;48.564;19.272;2024-02-14T01:57:01;18.52;;;12.68;;
77430;SDS011;66498;48.564;19.272;2024-02-14T01:59:28;11.52;;;8.40;;
77430;SDS011;66498;48.564;19.272;2024-02-14T02:01:53;11.55;;;8.38;;
77430;SDS011;66498;48.564;19.272;2024-02-14T02:04:19;12.23;;;9.00;;
77430;SDS011;66498;48.564;19.272;2024-02-14T02:06:45;12.95;;;9.32;;
77430;SDS011;66498;48.564;19.272;2024-02-14T02:09:11;14.93;;;9.50;;
77430;SDS011;66498;48.564;19.272;2024-02-14T02:11:46;14.88;;;9.55;;
77430;SDS011;66498;48.564;19.272;2024-02-14T02:14:15;40.92;;;23.05;;
77430;SDS011;66498;48.564;19.272;2024-02-14T02:16:42;60.33;;;32.38;;
77430;SDS011;66498;48.564;19.272;2024-02-14T02:19:08;34.15;;;20.55;;
77430;SDS011;66498;48.564;19.272;2024-02-14T02:21:37;35.75;;;20.67;;
77430;SDS011;66498;48.564;19.272;2024-02-14T02:24:03;21.38;;;13.25;;
77430;SDS011;66498;48.564;19.272;2024-02-14T02:26:29;13.18;;;8.82;;
77430;SDS011;66498;48.564;19.272;2024-02-14T02:28:54;11.57;;;9.02;;
77430;SDS011;66498;48.564;19.272;2024-02-14T02:31:20;55.50;;;26.02;;
77430;SDS011;66498;48.564;19.272;2024-02-14T02:33:46;21.52;;;13.23;;
77430;SDS011;66498;48.564;19.272;2024-02-14T02:36:12;15.80;;;10.55;;
77430;SDS011;66498;48.564;19.272;2024-02-14T02:38:37;11.85;;;9.07;;
77430;SDS011;66498;48.564;19.272;2024-02-14T02:41:03;13.50;;;9.70;;
77430;SDS011;66498;48.564;19.272;2024-02-14T02:43:34;13.02;;;9.00;;
77430;SDS011;66498;48.564;19.272;2024-02-14T02:46:00;11.68;;;8.80;;
77430;SDS011;66498;48.564;19.272;2024-02-14T02:48:26;15.02;;;10.10;;
77430;SDS011;66498;48.564;19.272;2024-02-14T02:50:52;14.50;;;10.10;;
77430;SDS011;66498;48.564;19.272;2024-02-14T02:53:18;13.73;;;9.60;;
77430;SDS011;66498;48.564;19.272;2024-02-14T02:55:44;13.98;;;9.43;;
77430;SDS011;66498;48.564;19.272;2024-02-14T02:58:10;14.45;;;9.52;;
77430;SDS011;66498;48.564;19.272;2024-02-14T03:00:36;12.52;;;9.20;;
77430;SDS011;66498;48.564;19.272;2024-02-14T03:03:01;13.38;;;8.82;;
77430;SDS011;66498;48.564;19.272;2024-02-14T03:05:29;16.52;;;9.48;;
77430;SDS011;66498;48.564;19.272;2024-02-14T03:07:57;13.30;;;9.45;;
77430;SDS011;66498;48.564;19.272;2024-02-14T03:10:23;12.00;;;9.02;;
77430;SDS011;66498;48.564;19.272;2024-02-14T03:12:50;12.15;;;9.20;;
77430;SDS011;66498;48.564;19.272;2024-02-14T03:15:15;13.02;;;8.90;;
77430;SDS011;66498;48.564;19.272;2024-02-14T03:17:41;15.02;;;10.30;;
77430;SDS011;66498;48.564;19.272;2024-02-14T03:20:10;19.27;;;13.30;;
77430;SDS011;66498;48.564;19.272;2024-02-14T03:22:43;16.40;;;10.82;;
77430;SDS011;66498;48.564;19.272;2024-02-14T03:25:16;16.27;;;11.02;;
77430;SDS011;66498;48.564;19.272;2024-02-14T03:27:42;14.60;;;10.27;;
77430;SDS011;66498;48.564;19.272;2024-02-14T03:30:10;16.40;;;10.73;;
77430;SDS011;66498;48.564;19.272;2024-02-14T03:32:40;15.65;;;11.07;;
77430;SDS011;66498;48.564;19.272;2024-02-14T03:35:05;16.83;;;11.80;;
77430;SDS011;66498;48.564;19.272;2024-02-14T03:37:31;14.90;;;10.80;;
77430;SDS011;66498;48.564;19.272;2024-02-14T03:39:57;15.18;;;10.85;;
77430;SDS011;66498;48.564;19.272;2024-02-14T03:42:22;15.93;;;10.80;;
77430;SDS011;66498;48.564;19.272;2024-02-14T03:44:48;17.05;;;10.63;;
77430;SDS011;66498;48.564;19.272;2024-02-14T03:47:13;14.38;;;10.13;;
77430;SDS011;66498;48.564;19.272;2024-02-14T03:49:39;16.30;;;11.23;;
77430;SDS011;66498;48.564;19.272;2024-02-14T03:52:05;15.32;;;10.43;;
77430;SDS011;66498;48.564;19.272;2024-02-14T03:54:35;15.95;;;11.02;;
77430;SDS011;66498;48.564;19.272;2024-02-14T03:57:03;15.55;;;10.57;;
77430;SDS011;66498;48.564;19.272;2024-02-14T03:59:35;16.85;;;10.65;;
77430;SDS011;66498;48.564;19.272;2024-02-14T04:02:01;16.27;;;11.27;;
77430;SDS011;66498;48.564;19.272;2024-02-14T04:04:26;14.20;;;10.38;;
77430;SDS011;66498;48.564;19.272;2024-02-14T04:06:52;14.57;;;10.05;;
77430;SDS011;66498;48.564;19.272;2024-02-14T04:09:17;14.45;;;9.93;;
77430;SDS011;66498;48.564;19.272;2024-02-14T04:11:43;13.75;;;9.43;;
77430;SDS011;66498;48.564;19.272;2024-02-14T04:14:08;15.98;;;10.15;;
77430;SDS011;66498;48.564;19.272;2024-02-14T04:16:33;14.00;;;9.48;;
77430;SDS011;66498;48.564;19.272;2024-02-14T04:19:01;14.70;;;10.32;;
77430;SDS011;66498;48.564;19.272;2024-02-14T04:21:26;15.52;;;10.50;;
77430;SDS011;66498;48.564;19.272;2024-02-14T04:23:51;14.93;;;9.88;;
77430;SDS011;66498;48.564;19.272;2024-02-14T04:26:20;13.30;;;9.75;;
77430;SDS011;66498;48.564;19.272;2024-02-14T04:28:46;13.35;;;9.77;;
77430;SDS011;66498;48.564;19.272;2024-02-14T04:31:12;12.98;;;9.40;;
77430;SDS011;66498;48.564;19.272;2024-02-14T04:33:37;12.57;;;9.63;;
77430;SDS011;66498;48.564;19.272;2024-02-14T04:36:03;14.30;;;9.68;;
77430;SDS011;66498;48.564;19.272;2024-02-14T04:38:30;13.23;;;9.65;;
77430;SDS011;66498;48.564;19.272;2024-02-14T04:40:56;14.10;;;9.80;;
77430;SDS011;66498;48.564;19.272;2024-02-14T04:43:23;13.55;;;9.45;;
77430;SDS011;66498;48.564;19.272;2024-02-14T04:45:52;16.15;;;10.05;;
77430;SDS011;66498;48.564;19.272;2024-02-14T04:48:18;11.75;;;8.90;;
77430;SDS011;66498;48.564;19.272;2024-02-14T04:50:45;10.13;;;8.02;;
77430;SDS011;66498;48.564;19.272;2024-02-14T04:53:10;11.65;;;8.20;;
77430;SDS011;66498;48.564;19.272;2024-02-14T04:55:36;11.73;;;8.15;;
77430;SDS011;66498;48.564;19.272;2024-02-14T04:58:01;11.65;;;8.63;;
77430;SDS011;66498;48.564;19.272;2024-02-14T05:00:27;12.85;;;8.23;;
77430;SDS011;66498;48.564;19.272;2024-02-14T05:02:53;13.48;;;8.73;;
77430;SDS011;66498;48.564;19.272;2024-02-14T05:05:18;18.23;;;11.45;;
77430;SDS011;66498;48.564;19.272;2024-02-14T05:07:45;18.10;;;10.88;;
77430;SDS011;66498;48.564;19.272;2024-02-14T05:10:11;13.98;;;9.75;;
77430;SDS011;66498;48.564;19.272;2024-02-14T05:12:37;14.57;;;10.15;;
77430;SDS011;66498;48.564;19.272;2024-02-14T05:15:03;12.82;;;9.07;;
77430;SDS011;66498;48.564;19.272;2024-02-14T05:17:29;13.27;;;8.77;;
77430;SDS011;66498;48.564;19.272;2024-02-14T05:19:55;14.70;;;9.40;;
77430;SDS011;66498;48.564;19.272;2024-02-14T05:22:21;18.02;;;10.68;;
77430;SDS011;66498;48.564;19.272;2024-02-14T05:24:47;47.63;;;19.15;;
77430;SDS011;66498;48.564;19.272;2024-02-14T05:27:13;33.78;;;15.50;;
77430;SDS011;66498;48.564;19.272;2024-02-14T05:29:38;27.80;;;14.98;;
77430;SDS011;66498;48.564;19.272;2024-02-14T05:32:04;25.75;;;14.23;;
77430;SDS011;66498;48.564;19.272;2024-02-14T05:34:30;22.85;;;11.75;;
77430;SDS011;66498;48.564;19.272;2024-02-14T05:36:56;16.55;;;11.15;;
77430;SDS011;66498;48.564;19.272;2024-02-14T05:39:21;14.32;;;9.65;;
77430;SDS011;66498;48.564;19.272;2024-02-14T05:41:47;14.65;;;10.30;;
77430;SDS011;66498;48.564;19.272;2024-02-14T05:44:14;14.70;;;9.80;;
77430;SDS011;66498;48.564;19.272;2024-02-14T05:46:39;14.43;;;9.20;;
77430;SDS011;66498;48.564;19.272;2024-02-14T05:49:06;12.88;;;9.82;;
77430;SDS011;66498;48.564;19.272;2024-02-14T05:51:31;13.40;;;9.38;;
77430;SDS011;66498;48.564;19.272;2024-02-14T05:53:57;12.90;;;9.50;;
77430;SDS011;66498;48.564;19.272;2024-02-14T05:56:22;13.15;;;9.32;;
77430;SDS011;66498;48.564;19.272;2024-02-14T05:58:48;16.05;;;9.55;;
77430;SDS011;66498;48.564;19.272;2024-02-14T06:01:13;12.35;;;8.77;;
77430;SDS011;66498;48.564;19.272;2024-02-14T06:03:40;15.10;;;9.15;;
77430;SDS011;66498;48.564;19.272;2024-02-14T06:06:07;11.93;;;9.15;;
77430;SDS011;66498;48.564;19.272;2024-02-14T06:08:32;12.52;;;8.95;;
77430;SDS011;66498;48.564;19.272;2024-02-14T06:10:57;12.00;;;8.77;;
77430;SDS011;66498;48.564;19.272;2024-02-14T06:13:23;13.90;;;10.07;;
77430;SDS011;66498;48.564;19.272;2024-02-14T06:15:49;12.45;;;9.20;;
77430;SDS011;66498;48.564;19.272;2024-02-14T06:18:14;14.70;;;10.45;;
77430;SDS011;66498;48.564;19.272;2024-02-14T06:20:41;19.40;;;12.95;;
77430;SDS011;66498;48.564;19.272;2024-02-14T06:23:06;16.10;;;10.93;;
77430;SDS011;66498;48.564;19.272;2024-02-14T06:25:33;14.55;;;10.35;;
77430;SDS011;66498;48.564;19.272;2024-02-14T06:27:58;17.13;;;10.45;;
77430;SDS011;66498;48.564;19.272;2024-02-14T06:30:24;16.20;;;10.95;;
77430;SDS011;66498;48.564;19.272;2024-02-14T06:32:49;15.68;;;11.00;;
77430;SDS011;66498;48.564;19.272;2024-02-14T06:35:15;15.18;;;10.10;;
77430;SDS011;66498;48.564;19.272;2024-02-14T06:37:43;15.90;;;10.27;;
77430;SDS011;66498;48.564;19.272;2024-02-14T06:40:09;12.98;;;9.60;;
77430;SDS011;66498;48.564;19.272;2024-02-14T06:42:35;13.70;;;9.27;;
77430;SDS011;66498;48.564;19.272;2024-02-14T06:45:01;12.05;;;8.80;;
77430;SDS011;66498;48.564;19.272;2024-02-14T06:47:26;12.88;;;8.02;;
77430;SDS011;66498;48.564;19.272;2024-02-14T06:49:55;13.48;;;8.82;;
77430;SDS011;66498;48.564;19.272;2024-02-14T06:52:21;12.13;;;8.93;;
77430;SDS011;66498;48.564;19.272;2024-02-14T06:54:46;13.00;;;9.18;;
77430;SDS011;66498;48.564;19.272;2024-02-14T06:57:13;20.23;;;12.05;;
77430;SDS011;66498;48.564;19.272;2024-02-14T06:59:39;22.42;;;15.73;;
77430;SDS011;66498;48.564;19.272;2024-02-14T07:02:04;27.00;;;17.63;;
77430;SDS011;66498;48.564;19.272;2024-02-14T07:04:30;25.05;;;16.75;;
77430;SDS011;66498;48.564;19.272;2024-02-14T07:06:56;26.60;;;16.00;;
77430;SDS011;66498;48.564;19.272;2024-02-14T07:09:21;21.52;;;13.65;;
77430;SDS011;66498;48.564;19.272;2024-02-14T07:11:47;26.38;;;16.02;;
77430;SDS011;66498;48.564;19.272;2024-02-14T07:14:12;30.35;;;17.73;;
77430;SDS011;66498;48.564;19.272;2024-02-14T07:16:38;31.02;;;19.50;;
77430;SDS011;66498;48.564;19.272;2024-02-14T07:19:03;30.98;;;19.63;;
77430;SDS011;66498;48.564;19.272;2024-02-14T07:21:29;28.65;;;18.23;;
77430;SDS011;66498;48.564;19.272;2024-02-14T07:23:55;27.17;;;17.75;;
77430;SDS011;66498;48.564;19.272;2024-02-14T07:26:20;21.33;;;15.07;;
77430;SDS011;66498;48.564;19.272;2024-02-14T07:28:46;19.58;;;12.45;;
77430;SDS011;66498;48.564;19.272;2024-02-14T07:31:11;18.15;;;12.60;;
77430;SDS011;66498;48.564;19.272;2024-02-14T07:33:36;17.98;;;12.30;;
77430;SDS011;66498;48.564;19.272;2024-02-14T07:36:02;19.88;;;12.93;;
77430;SDS011;66498;48.564;19.272;2024-02-14T07:38:28;16.95;;;12.13;;
77430;SDS011;66498;48.564;19.272;2024-02-14T07:40:53;18.63;;;12.57;;
77430;SDS011;66498;48.564;19.272;2024-02-14T07:43:19;16.75;;;11.43;;
77430;SDS011;66498;48.564;19.272;2024-02-14T07:45:44;15.88;;;11.70;;
77430;SDS011;66498;48.564;19.272;2024-02-14T07:48:10;15.50;;;11.88;;
77430;SDS011;66498;48.564;19.272;2024-02-14T07:50:35;13.98;;;10.35;;
77430;SDS011;66498;48.564;19.272;2024-02-14T07:53:02;13.07;;;9.60;;
77430;SDS011;66498;48.564;19.272;2024-02-14T07:55:27;14.02;;;10.05;;
77430;SDS011;66498;48.564;19.272;2024-02-14T07:57:53;13.25;;;8.77;;
77430;SDS011;66498;48.564;19.272;2024-02-14T08:00:19;13.18;;;9.02;;
77430;SDS011;66498;48.564;19.272;2024-02-14T08:02:50;13.68;;;9.48;;
77430;SDS011;66498;48.564;19.272;2024-02-14T08:05:16;13.73;;;10.10;;
77430;SDS011;66498;48.564;19.272;2024-02-14T08:07:42;15.30;;;11.20;;
77430;SDS011;66498;48.564;19.272;2024-02-14T08:10:07;13.55;;;10.25;;
77430;SDS011;66498;48.564;19.272;2024-02-14T08:12:34;16.65;;;10.82;;
77430;SDS011;66498;48.564;19.272;2024-02-14T08:14:59;15.32;;;10.73;;
77430;SDS011;66498;48.564;19.272;2024-02-14T08:17:29;16.17;;;11.38;;
77430;SDS011;66498;48.564;19.272;2024-02-14T08:19:54;16.88;;;12.00;;
77430;SDS011;66498;48.564;19.272;2024-02-14T08:22:20;13.43;;;11.18;;
77430;SDS011;66498;48.564;19.272;2024-02-14T08:24:46;14.80;;;10.82;;
77430;SDS011;66498;48.564;19.272;2024-02-14T08:27:11;16.52;;;10.95;;
77430;SDS011;66498;48.564;19.272;2024-02-14T08:29:37;13.70;;;10.18;;
77430;SDS011;66498;48.564;19.272;2024-02-14T08:32:03;13.55;;;10.02;;
77430;SDS011;66498;48.564;19.272;2024-02-14T08:34:30;15.20;;;10.10;;
77430;SDS011;66498;48.564;19.272;2024-02-14T08:36:56;13.05;;;10.05;;
77430;SDS011;66498;48.564;19.272;2024-02-14T08:39:22;13.75;;;9.73;;
77430;SDS011;66498;48.564;19.272;2024-02-14T08:41:47;12.82;;;10.20;;
77430;SDS011;66498;48.564;19.272;2024-02-14T08:44:13;12.75;;;9.85;;
77430;SDS011;66498;48.564;19.272;2024-02-14T08:46:39;11.18;;;7.85;;
77430;SDS011;66498;48.564;19.272;2024-02-14T08:49:07;10.32;;;8.15;;
77430;SDS011;66498;48.564;19.272;2024-02-14T08:51:36;13.13;;;8.55;;
77430;SDS011;66498;48.564;19.272;2024-02-14T08:54:03;15.02;;;10.73;;
77430;SDS011;66498;48.564;19.272;2024-02-14T08:56:31;31.63;;;18.35;;
77430;SDS011;66498;48.564;19.272;2024-02-14T08:59:01;16.40;;;10.98;;
77430;SDS011;66498;48.564;19.272;2024-02-14T09:01:29;11.63;;;8.57;;
77430;SDS011;66498;48.564;19.272;2024-02-14T09:03:55;14.63;;;9.90;;
77430;SDS011;66498;48.564;19.272;2024-02-14T09:06:20;11.98;;;8.30;;
77430;SDS011;66498;48.564;19.272;2024-02-14T09:08:49;9.00;;;6.38;;
77430;SDS011;66498;48.564;19.272;2024-02-14T09:11:17;8.00;;;6.18;;
77430;SDS011;66498;48.564;19.272;2024-02-14T09:13:42;17.40;;;6.85;;
77430;SDS011;66498;48.564;19.272;2024-02-14T09:16:08;9.00;;;5.85;;
77430;SDS011;66498;48.564;19.272;2024-02-14T09:18:39;9.20;;;5.72;;
77430;SDS011;66498;48.564;19.272;2024-02-14T09:21:04;7.85;;;5.93;;
77430;SDS011;66498;48.564;19.272;2024-02-14T09:23:30;7.05;;;4.93;;
77430;SDS011;66498;48.564;19.272;2024-02-14T09:25:57;6.40;;;5.43;;
77430;SDS011;66498;48.564;19.272;2024-02-14T09:28:23;9.07;;;6.07;;
77430;SDS011;66498;48.564;19.272;2024-02-14T09:30:50;7.85;;;5.60;;
77430;SDS011;66498;48.564;19.272;2024-02-14T09:33:15;7.22;;;5.57;;
77430;SDS011;66498;48.564;19.272;2024-02-14T09:35:41;7.05;;;5.00;;
77430;SDS011;66498;48.564;19.272;2024-02-14T09:38:10;7.78;;;5.15;;
77430;SDS011;66498;48.564;19.272;2024-02-14T09:40:38;6.30;;;4.82;;
77430;SDS011;66498;48.564;19.272;2024-02-14T09:43:07;8.13;;;5.03;;
77430;SDS011;66498;48.564;19.272;2024-02-14T09:45:57;7.15;;;4.53;;
77430;SDS011;66498;48.564;19.272;2024-02-14T09:48:23;7.10;;;4.38;;
77430;SDS011;66498;48.564;19.272;2024-02-14T09:50:50;8.98;;;5.20;;
77430;SDS011;66498;48.564;19.272;2024-02-14T09:53:18;7.82;;;4.78;;
77430;SDS011;66498;48.564;19.272;2024-02-14T09:55:45;9.35;;;6.18;;
77430;SDS011;66498;48.564;19.272;2024-02-14T09:58:11;8.32;;;6.07;;
77430;SDS011;66498;48.564;19.272;2024-02-14T10:00:37;6.85;;;5.55;;
77430;SDS011;66498;48.564;19.272;2024-02-14T10:03:03;19.10;;;7.45;;
77430;SDS011;66498;48.564;19.272;2024-02-14T10:05:29;7.90;;;6.35;;
77430;SDS011;66498;48.564;19.272;2024-02-14T10:07:56;9.32;;;6.45;;
77430;SDS011;66498;48.564;19.272;2024-02-14T10:10:22;12.63;;;6.70;;
77430;SDS011;66498;48.564;19.272;2024-02-14T10:12:48;8.02;;;5.55;;
77430;SDS011;66498;48.564;19.272;2024-02-14T10:15:13;6.60;;;4.93;;
77430;SDS011;66498;48.564;19.272;2024-02-14T10:17:39;9.38;;;5.22;;
77430;SDS011;66498;48.564;19.272;2024-02-14T10:20:06;7.30;;;4.68;;
77430;SDS011;66498;48.564;19.272;2024-02-14T10:22:35;5.75;;;4.47;;
77430;SDS011;66498;48.564;19.272;2024-02-14T10:25:05;6.85;;;4.30;;
77430;SDS011;66498;48.564;19.272;2024-02-14T10:27:37;8.57;;;4.75;;
77430;SDS011;66498;48.564;19.272;2024-02-14T10:30:04;5.00;;;4.07;;
77430;SDS011;66498;48.564;19.272;2024-02-14T10:32:34;5.53;;;4.13;;
77430;SDS011;66498;48.564;19.272;2024-02-14T10:35:04;5.85;;;3.60;;
77430;SDS011;66498;48.564;19.272;2024-02-14T10:37:34;6.05;;;4.75;;
77430;SDS011;66498;48.564;19.272;2024-02-14T10:40:01;6.25;;;4.00;;
77430;SDS011;66498;48.564;19.272;2024-02-14T10:42:29;6.97;;;4.65;;
77430;SDS011;66498;48.564;19.272;2024-02-14T10:45:03;8.35;;;5.40;;
77430;SDS011;66498;48.564;19.272;2024-02-14T10:47:34;9.05;;;5.63;;
77430;SDS011;66498;48.564;19.272;2024-02-14T10:50:02;6.03;;;4.40;;
77430;SDS011;66498;48.564;19.272;2024-02-14T10:52:30;7.70;;;4.70;;
77430;SDS011;66498;48.564;19.272;2024-02-14T10:55:04;7.18;;;5.60;;
77430;SDS011;66498;48.564;19.272;2024-02-14T10:57:30;7.47;;;5.68;;
77430;SDS011;66498;48.564;19.272;2024-02-14T10:59:59;8.18;;;5.50;;
77430;SDS011;66498;48.564;19.272;2024-02-14T11:02:26;7.57;;;5.15;;
77430;SDS011;66498;48.564;19.272;2024-02-14T11:04:55;8.23;;;5.88;;
77430;SDS011;66498;48.564;19.272;2024-02-14T11:07:21;7.88;;;6.13;;
77430;SDS011;66498;48.564;19.272;2024-02-14T11:10:05;7.05;;;5.50;;
77430;SDS011;66498;48.564;19.272;2024-02-14T11:12:35;7.75;;;5.53;;
77430;SDS011;66498;48.564;19.272;2024-02-14T11:15:11;9.27;;;6.22;;
77430;SDS011;66498;48.564;19.272;2024-02-14T11:17:38;6.90;;;5.40;;
77430;SDS011;66498;48.564;19.272;2024-02-14T11:20:13;6.72;;;5.35;;
77430;SDS011;66498;48.564;19.272;2024-02-14T11:22:39;10.32;;;7.72;;
77430;SDS011;66498;48.564;19.272;2024-02-14T11:25:14;8.35;;;6.63;;
77430;SDS011;66498;48.564;19.272;2024-02-14T11:27:46;11.52;;;8.50;;
77430;SDS011;66498;48.564;19.272;2024-02-14T11:30:12;13.10;;;8.30;;
77430;SDS011;66498;48.564;19.272;2024-02-14T11:32:40;9.55;;;7.07;;
77430;SDS011;66498;48.564;19.272;2024-02-14T11:35:07;10.05;;;7.15;;
77430;SDS011;66498;48.564;19.272;2024-02-14T11:37:36;11.70;;;7.50;;
77430;SDS011;66498;48.564;19.272;2024-02-14T11:40:02;9.43;;;6.88;;
77430;SDS011;66498;48.564;19.272;2024-02-14T11:42:27;9.23;;;6.70;;
77430;SDS011;66498;48.564;19.272;2024-02-14T11:44:53;8.90;;;6.78;;
77430;SDS011;66498;48.564;19.272;2024-02-14T11:47:22;9.30;;;7.03;;
77430;SDS011;66498;48.564;19.272;2024-02-14T11:49:48;11.57;;;7.57;;
77430;SDS011;66498;48.564;19.272;2024-02-14T11:52:13;10.82;;;7.95;;
77430;SDS011;66498;48.564;19.272;2024-02-14T11:54:39;10.98;;;8.35;;
77430;SDS011;66498;48.564;19.272;2024-02-14T11:57:10;12.98;;;8.57;;
77430;SDS011;66498;48.564;19.272;2024-02-14T11:59:36;11.88;;;8.57;;
77430;SDS011;66498;48.564;19.272;2024-02-14T12:02:01;9.00;;;6.85;;
77430;SDS011;66498;48.564;19.272;2024-02-14T12:04:27;9.73;;;7.75;;
77430;SDS011;66498;48.564;19.272;2024-02-14T12:06:53;10.20;;;7.97;;
77430;SDS011;66498;48.564;19.272;2024-02-14T12:09:20;13.55;;;8.95;;
77430;SDS011;66498;48.564;19.272;2024-02-14T12:11:46;11.73;;;9.07;;
77430;SDS011;66498;48.564;19.272;2024-02-14T12:14:11;13.02;;;8.95;;
77430;SDS011;66498;48.564;19.272;2024-02-14T12:16:38;11.55;;;8.52;;
77430;SDS011;66498;48.564;19.272;2024-02-14T12:19:14;9.15;;;7.32;;
77430;SDS011;66498;48.564;19.272;2024-02-14T12:21:40;12.05;;;7.40;;
77430;SDS011;66498;48.564;19.272;2024-02-14T12:24:09;8.48;;;5.63;;
77430;SDS011;66498;48.564;19.272;2024-02-14T12:26:36;6.78;;;5.07;;
77430;SDS011;66498;48.564;19.272;2024-02-14T12:29:03;5.07;;;3.38;;
77430;SDS011;66498;48.564;19.272;2024-02-14T12:31:29;4.55;;;3.20;;
77430;SDS011;66498;48.564;19.272;2024-02-14T12:33:58;5.07;;;3.00;;
77430;SDS011;66498;48.564;19.272;2024-02-14T12:36:30;4.82;;;3.03;;
77430;SDS011;66498;48.564;19.272;2024-02-14T12:38:58;6.20;;;4.25;;
77430;SDS011;66498;48.564;19.272;2024-02-14T12:41:24;5.60;;;3.70;;
77430;SDS011;66498;48.564;19.272;2024-02-14T12:43:54;5.55;;;3.78;;
77430;SDS011;66498;48.564;19.272;2024-02-14T12:46:20;3.83;;;3.20;;
77430;SDS011;66498;48.564;19.272;2024-02-14T12:48:46;5.32;;;3.17;;
77430;SDS011;66498;48.564;19.272;2024-02-14T12:51:12;5.30;;;3.63;;
77430;SDS011;66498;48.564;19.272;2024-02-14T12:53:38;3.58;;;2.75;;
77430;SDS011;66498;48.564;19.272;2024-02-14T12:56:04;4.47;;;2.78;;
77430;SDS011;66498;48.564;19.272;2024-02-14T12:58:30;4.43;;;3.20;;
77430;SDS011;66498;48.564;19.272;2024-02-14T13:00:57;5.90;;;2.90;;
77430;SDS011;66498;48.564;19.272;2024-02-14T13:03:24;5.15;;;2.83;;
77430;SDS011;66498;48.564;19.272;2024-02-14T13:05:50;4.90;;;2.72;;
77430;SDS011;66498;48.564;19.272;2024-02-14T13:08:18;4.97;;;2.85;;
77430;SDS011;66498;48.564;19.272;2024-02-14T13:10:44;4.53;;;2.90;;
77430;SDS011;66498;48.564;19.272;2024-02-14T13:13:09;4.85;;;2.80;;
77430;SDS011;66498;48.564;19.272;2024-02-14T13:15:36;6.88;;;3.17;;
77430;SDS011;66498;48.564;19.272;2024-02-14T13:18:02;3.45;;;2.88;;
77430;SDS011;66498;48.564;19.272;2024-02-14T13:20:28;3.17;;;2.58;;
77430;SDS011;66498;48.564;19.272;2024-02-14T13:22:54;5.13;;;2.90;;
77430;SDS011;66498;48.564;19.272;2024-02-14T13:25:20;4.32;;;2.70;;
77430;SDS011;66498;48.564;19.272;2024-02-14T13:27:46;3.95;;;2.88;;
77430;SDS011;66498;48.564;19.272;2024-02-14T13:30:12;4.00;;;2.70;;
77430;SDS011;66498;48.564;19.272;2024-02-14T13:32:39;4.38;;;2.80;;
77430;SDS011;66498;48.564;19.272;2024-02-14T13:35:04;5.28;;;3.55;;
77430;SDS011;66498;48.564;19.272;2024-02-14T13:37:31;6.93;;;4.43;;
77430;SDS011;66498;48.564;19.272;2024-02-14T13:39:57;6.10;;;3.20;;
77430;SDS011;66498;48.564;19.272;2024-02-14T13:42:23;5.40;;;3.08;;
77430;SDS011;66498;48.564;19.272;2024-02-14T13:44:48;5.22;;;3.30;;
77430;SDS011;66498;48.564;19.272;2024-02-14T13:47:18;5.20;;;3.13;;
77430;SDS011;66498;48.564;19.272;2024-02-14T13:49:44;4.85;;;2.90;;
77430;SDS011;66498;48.564;19.272;2024-02-14T13:52:10;4.03;;;2.95;;
77430;SDS011;66498;48.564;19.272;2024-02-14T13:54:35;7.60;;;2.90;;
77430;SDS011;66498;48.564;19.272;2024-02-14T13:57:01;5.15;;;2.95;;
77430;SDS011;66498;48.564;19.272;2024-02-14T13:59:28;5.28;;;3.17;;
77430;SDS011;66498;48.564;19.272;2024-02-14T14:01:54;5.78;;;3.28;;
77430;SDS011;66498;48.564;19.272;2024-02-14T14:04:20;4.18;;;3.05;;
77430;SDS011;66498;48.564;19.272;2024-02-14T14:06:49;4.07;;;3.25;;
77430;SDS011;66498;48.564;19.272;2024-02-14T14:09:15;5.43;;;2.80;;
77430;SDS011;66498;48.564;19.272;2024-02-14T14:11:40;6.50;;;3.50;;
77430;SDS011;66498;48.564;19.272;2024-02-14T16:37:08;12.93;;;6.85;;
77430;SDS011;66498;48.564;19.272;2024-02-14T16:39:33;17.45;;;7.63;;